Kirchberg-Wetter.de


Hier erfahren Sie, wie das Wetter wird...


WebCam am Fuchsberg more information WebCam am Fuchsberg


Thunder radar more information blitzortung!


Warnung für Schnee und Eis more information rain snow radar


Besuchen Sie unsere anderen Wetter Stationen:

Template documentation
and downloads

And another site



Schnee/Eis Gültig von: 05-12-2020 19:00 bis: 06-12-2020 10:00 Warnung für: Schnee/Eis Gefahrenstufe: Gelb info button
deutsch:
Es muss mit Glätte durch verbreitet überfrierende Nässe sowie geringfügigen Schneefall gerechnet werden.

english:
There is a risk of widespread icy surfaces. (Level 1 of 3).cause: widespread ice formation or traces of snow 

METAR-Meldungen aus der Umgebung

   
EHVK - Volkel Rnlafb, Netherlands
Entfernung von der Station bis: SW 18 km
Aktualisierung: 05-12-2020 22:55
Stark bewölkt  
Stark bewölkt  
   Wind: ONO 5.6 km/h
Wind: ONO 5.6 km/h
Temperatur: -1°C
Gefühlt: -3°C
Taupunkt: -2°C
Luftfeuchte: 93%
Luftdruck: 1001 hPa
Bewölkt: Stark bewölkt
Sichtbarkeit: More than 10 km
Bewölkung: Stark bewölkt 22000 ft
EHVK 052155Z AUTO 07003KT 9999 BKN220 M01/M02 Q1001 BLU
EDLV - Niederrhein, Germany
Entfernung von der Station bis: SO 25 km
Aktualisierung: 05-12-2020 22:50
Klar  
Klar  
   Wind: Osten 5.6 km/h
Wind: Osten 5.6 km/h
Temperatur: 0°C
Gefühlt: -2°C
Taupunkt: -2°C
Luftfeuchte: 87%
Luftdruck: 1001 hPa
Sichtbarkeit: More than 10 km
Bewölkung: Klar
EDLV 052150Z 10003KT CAVOK M00/M02 Q1001
EHDL - Deelen Rnlafb, Netherlands
Entfernung von der Station bis: N 35 km
Aktualisierung: 05-12-2020 22:55
Stark bewölkt  
Stark bewölkt  
   Wind: Osten 5.6 km/h
Wind: Osten 5.6 km/h
Temperatur: -1°C
Gefühlt: -3°C
Taupunkt: -2°C
Luftfeuchte: 93%
Luftdruck: 1001 hPa
Bewölkt: Stark bewölkt
Sichtbarkeit: More than 10 km
Bewölkung: Stark bewölkt 22000 ft
EHDL 052155Z AUTO 09003KT 090V190 9999 BKN220 M01/M02 Q1001 BLU
EHEH - Eindhoven Rnlafb, Netherlands
Entfernung von der Station bis: SW 48 km
Aktualisierung: 05-12-2020 22:55
Bewölkt  
Bewölkt  
   Wind: Osten 5.6 km/h
Wind: Osten 5.6 km/h
Temperatur: 1°C
Gefühlt: -1°C
Taupunkt: -1°C
Luftfeuchte: 87%
Luftdruck: 1001 hPa
Bewölkt: Bewölkt
Sichtbarkeit: More than 10 km
Bewölkung: Bewölkt 25000 ft
EHEH 052155Z AUTO 08003KT 010V070 9999 OVC250 01/M01 Q1001 BLU
EHGR - Gilze-Rijen Rnla, Netherlands
Entfernung von der Station bis: WSW 70 km
Aktualisierung: 05-12-2020 22:55
Klar  
Klar  
   Wind: OSO 9.3 km/h
Wind: OSO 9.3 km/h
Temperatur: 1°C
Gefühlt: -2°C
Taupunkt: -1°C
Luftfeuchte: 87%
Luftdruck: 1000 hPa
Bewölkt: Klar
Sichtbarkeit: More than 10 km
Bewölkung: Klar
EHGR 052155Z AUTO 11005KT 100V160 9999 NCD 01/M01 Q1000 BLU
EBBL - Kleine-Brogel(Ba, Belgium
Entfernung von der Station bis: SSW 71 km
Aktualisierung: 05-12-2020 22:55
leicht bewölkt  
leicht bewölkt  
   Wind: variiert 3.7 km/h
Wind: variiert 3.7 km/h
Temperatur: -1°C
Taupunkt: -2°C
Luftfeuchte: 93%
Luftdruck: 1000 hPa
Bewölkt: leicht bewölkt
Sichtbarkeit: More than 10 km
Bewölkung: leicht bewölkt 24000 ft
EBBL 052155Z AUTO VRB02KT 9999 FEW240/// M01/M02 Q1000 BLU

Script entwickelt von  Saratoga-weather.org Angepasst für das Template von  Weerstation Leuven

Sie finden unser Wetter-Infos auch auf:

Weather Underground

WeatherlinkIP

Wetternetz-Sachsen

Von uns verwendete Ausrüstung:

Wetterstation
Davis Vantage Pro2 Plus

Wetterprogramm
Meteobridge

WetterComputer
TP-Link TL-MR3020

Davis Vantage Pro2 Plus

Meteobridge

TP-Link TL-MR3020